Time;durP1;ratioP1;P1;durP2;ratioP2;P2;SDS_P1;SDS_P2;PMS_P1;PMS_P2;Temp;Humidity;BMP_temperature;BMP_pressure;BME280_temperature;BME280_humidity;BME280_pressure;Samples;Min_cycle;Max_cycle;Signal;HPM_P1;HPM_P2
2022/09/13 00:01:06;;;;;;;1999.90;999.90;;;;;;;12.27;100.00;93965.19;6246160;22;20238;-60
2022/09/13 00:03:31;;;;;;;1999.90;999.90;;;;;;;12.27;100.00;93965.19;6245915;22;20190;-60
2022/09/13 00:05:56;;;;;;;1999.90;999.90;;;;;;;12.22;100.00;93957.59;6272522;22;20219;-59
2022/09/13 00:08:22;;;;;;;1999.90;999.90;;;;;;;12.21;100.00;93954.06;6272286;22;20189;-60
2022/09/13 00:10:48;;;;;;;1999.90;999.90;;;;;;;12.25;100.00;93956.69;6246817;23;20237;-60
2022/09/13 00:13:15;;;;;;;1999.90;999.90;;;;;;;12.24;100.00;93944.97;6246348;22;20165;-59
2022/09/13 00:15:49;;;;;;;1999.90;999.90;;;;;;;12.24;100.00;93939.50;6246532;23;20162;-59
2022/09/13 00:18:15;;;;;;;1999.90;999.90;;;;;;;12.27;100.00;93926.88;6245994;23;20162;-60
2022/09/13 00:20:41;;;;;;;1999.90;999.90;;;;;;;12.26;100.00;93937.09;6246190;22;20167;-59
2022/09/13 00:23:07;;;;;;;1999.90;999.90;;;;;;;12.26;100.00;93936.31;6271778;22;20290;-60
2022/09/13 00:25:32;;;;;;;1999.90;999.90;;;;;;;12.26;100.00;93937.09;6246285;22;20169;-60
2022/09/13 00:27:57;;;;;;;1999.90;999.90;;;;;;;12.25;100.00;93935.56;6246210;23;20174;-61
2022/09/13 00:30:23;;;;;;;1999.90;999.90;;;;;;;12.21;100.00;93931.44;6271412;22;20535;-59
2022/09/13 00:32:48;;;;;;;1999.90;999.90;;;;;;;12.16;100.00;93937.47;6272072;22;20211;-58
2022/09/13 00:35:14;;;;;;;1999.90;999.90;;;;;;;12.16;100.00;93932.78;6271974;22;20169;-59
2022/09/13 00:37:39;;;;;;;1999.90;999.90;;;;;;;12.15;100.00;93922.28;6271471;22;20603;-59
2022/09/13 00:40:05;;;;;;;1999.90;999.90;;;;;;;12.11;100.00;93918.91;6245838;23;20198;-61
2022/09/13 00:42:32;;;;;;;1999.90;999.90;;;;;;;12.12;100.00;93914.97;6245631;22;20177;-60
2022/09/13 00:45:01;;;;;;;1999.90;999.90;;;;;;;12.13;100.00;93916.50;6246152;23;20265;-60
2022/09/13 00:47:33;;;;;;;1999.90;999.90;;;;;;;12.12;100.00;93914.97;6272058;22;20189;-60
2022/09/13 00:50:06;;;;;;;1999.90;999.90;;;;;;;12.08;100.00;93919.81;6271647;22;20256;-60
2022/09/13 00:52:35;;;;;;;1999.90;999.90;;;;;;;12.03;100.00;93923.13;6246411;23;20237;-59
2022/09/13 00:55:10;;;;;;;1999.90;999.90;;;;;;;12.07;100.00;93926.50;6271465;22;20178;-60
2022/09/13 00:57:36;;;;;;;1999.90;999.90;;;;;;;12.05;100.00;93926.16;6246278;23;20162;-59
2022/09/13 01:00:12;;;;;;;1999.90;999.90;;;;;;;12.05;100.00;93917.97;6271530;22;20173;-60
2022/09/13 01:02:43;;;;;;;1999.90;999.90;;;;;;;12.06;100.00;93916.78;6246013;23;20181;-59
2022/09/13 01:05:10;;;;;;;1999.90;999.90;;;;;;;12.05;100.00;93920.69;6246086;23;20178;-60
2022/09/13 01:07:37;;;;;;;1999.90;999.90;;;;;;;12.03;100.00;93928.59;6271677;22;20168;-60
2022/09/13 01:10:06;;;;;;;1999.90;999.90;;;;;;;12.00;100.00;93913.84;6271447;22;20186;-60
2022/09/13 01:12:55;;;;;;;1999.90;999.90;;;;;;;11.95;100.00;93911.69;6271155;22;20168;-60
2022/09/13 01:15:20;;;;;;;1999.90;999.90;;;;;;;11.93;100.00;93913.34;6271810;22;20206;-60
2022/09/13 01:17:47;;;;;;;1999.90;999.90;;;;;;;11.89;100.00;93896.31;6245637;23;20166;-58
2022/09/13 01:20:13;;;;;;;1999.90;999.90;;;;;;;11.85;100.00;93890.19;6245836;23;20170;-60
2022/09/13 01:23:05;;;;;;;1999.90;999.90;;;;;;;11.84;100.00;93883.22;6271102;22;20263;-60
2022/09/13 01:25:49;;;;;;;1999.90;999.90;;;;;;;11.79;100.00;93875.56;6271793;22;20201;-60
2022/09/13 01:28:50;;;;;;;1999.90;999.90;;;;;;;11.80;100.00;93874.38;6271849;22;20168;-60
2022/09/13 01:31:42;;;;;;;1999.90;999.90;;;;;;;11.79;100.00;93878.31;6271811;22;20169;-60
2022/09/13 01:34:23;;;;;;;1999.90;999.90;;;;;;;11.76;100.00;93884.69;6246135;23;20503;-59
2022/09/13 01:37:07;;;;;;;1999.90;999.90;;;;;;;11.75;100.00;93880.41;6270672;22;20245;-60
2022/09/13 01:39:48;;;;;;;1999.90;999.90;;;;;;;11.71;100.00;93874.31;6271106;22;20167;-60
2022/09/13 01:42:38;;;;;;;1999.90;999.90;;;;;;;11.70;100.00;93875.53;6271781;22;20187;-60
2022/09/13 01:45:50;;;;;;;1999.90;999.90;;;;;;;11.65;100.00;93867.91;6246141;23;20589;-60
2022/09/13 01:48:29;;;;;;;1999.90;999.90;;;;;;;11.62;100.00;93871.53;6270263;22;20161;-60
2022/09/13 01:51:07;;;;;;;1999.90;999.90;;;;;;;11.59;100.00;93878.66;6245265;23;20227;-60
2022/09/13 01:53:37;;;;;;;1999.90;999.90;;;;;;;11.56;100.00;93879.53;6246188;23;20175;-60
2022/09/13 01:56:11;;;;;;;1999.90;999.90;;;;;;;11.52;100.00;93878.13;6270953;22;20168;-60
2022/09/13 01:59:03;;;;;;;1999.90;999.90;;;;;;;11.51;100.00;93871.13;6246163;23;20240;-60
2022/09/13 02:02:04;;;;;;;1999.90;999.90;;;;;;;11.49;100.00;93873.53;6246142;23;20581;-60
2022/09/13 02:04:40;;;;;;;1999.90;999.90;;;;;;;11.45;100.00;93862.75;6245796;22;20160;-59
2022/09/13 02:07:29;;;;;;;1999.90;999.90;;;;;;;11.42;100.00;93857.41;6245017;23;20164;-59
2022/09/13 02:10:01;;;;;;;1999.90;999.90;;;;;;;11.42;100.00;93862.88;6245485;23;20166;-60
2022/09/13 02:12:30;;;;;;;1999.90;999.90;;;;;;;11.41;100.00;93855.88;6271167;22;20671;-60
2022/09/13 02:15:19;;;;;;;1999.90;999.90;;;;;;;11.42;100.00;93857.41;6245224;22;20164;-59
2022/09/13 02:18:10;;;;;;;1999.90;999.90;;;;;;;11.40;100.00;93841.44;6245159;22;20160;-59
2022/09/13 02:20:40;;;;;;;1999.90;999.90;;;;;;;11.36;100.00;93832.63;6203337;23;20172;-60
2022/09/13 02:23:38;;;;;;;1999.90;999.90;;;;;;;11.36;100.00;93829.88;6271402;22;20174;-59
2022/09/13 02:26:06;;;;;;;1999.90;999.90;;;;;;;11.35;100.00;93830.31;6270103;22;20593;-59
2022/09/13 02:28:37;;;;;;;1999.90;999.90;;;;;;;11.30;100.00;93828.19;6245233;22;20184;-59
2022/09/13 02:31:06;;;;;;;1999.90;999.90;;;;;;;11.30;100.00;93833.63;6270907;22;20226;-60
2022/09/13 02:33:45;;;;;;;1999.90;999.90;;;;;;;11.29;100.00;93832.88;6245480;22;20161;-60
2022/09/13 02:36:22;;;;;;;1999.90;999.90;;;;;;;11.26;100.00;93838.47;6246150;23;20162;-60
2022/09/13 02:38:55;;;;;;;1999.90;999.90;;;;;;;11.25;100.00;93836.97;6245736;23;20572;-59
2022/09/13 02:41:26;;;;;;;1999.90;999.90;;;;;;;11.26;100.00;93838.47;6245687;23;20168;-60
2022/09/13 02:44:00;;;;;;;1999.90;999.90;;;;;;;11.27;100.00;93834.53;6271510;22;20195;-60
2022/09/13 02:46:38;;;;;;;1999.90;999.90;;;;;;;11.23;100.00;93839.34;6245639;23;20165;-59
2022/09/13 02:49:14;;;;;;;1999.90;999.90;;;;;;;11.20;100.00;93845.72;6245525;23;20595;-59
2022/09/13 02:52:10;;;;;;;1999.90;999.90;;;;;;;11.19;100.00;93844.97;6246288;22;20176;-60
2022/09/13 02:54:47;;;;;;;1999.90;999.90;;;;;;;11.20;100.00;93848.44;6226334;22;20167;-60
2022/09/13 02:57:40;;;;;;;1999.90;999.90;;;;;;;11.20;100.00;93845.72;6245401;23;20168;-59
2022/09/13 03:00:07;;;;;;;1999.90;999.90;;;;;;;11.19;100.00;93839.50;6245207;23;20174;-59
2022/09/13 03:02:33;;;;;;;1999.90;999.90;;;;;;;11.18;100.00;93839.94;6244886;22;20179;-60
2022/09/13 03:04:59;;;;;;;1999.90;999.90;;;;;;;11.16;100.00;93839.63;6244963;22;20667;-59
2022/09/13 03:07:25;;;;;;;1999.90;999.90;;;;;;;11.13;100.00;93846.72;6245282;22;20576;-59
2022/09/13 03:09:58;;;;;;;1999.90;999.90;;;;;;;11.08;100.00;93839.13;6270674;22;20224;-59
2022/09/13 03:12:53;;;;;;;1999.90;999.90;;;;;;;11.06;100.00;93835.28;6271619;22;20199;-59
2022/09/13 03:15:28;;;;;;;1999.90;999.90;;;;;;;11.05;100.00;93844.69;6218904;23;20197;-59
2022/09/13 03:17:57;;;;;;;1999.90;999.90;;;;;;;11.02;100.00;93840.09;6270439;22;20165;-59
2022/09/13 03:20:46;;;;;;;1999.90;999.90;;;;;;;11.01;100.00;93833.91;6270374;22;20591;-59
2022/09/13 03:23:25;;;;;;;1999.90;999.90;;;;;;;10.99;100.00;93836.28;6270744;22;20226;-59
2022/09/13 03:26:02;;;;;;;1999.90;999.90;;;;;;;10.98;100.00;93845.72;6271043;22;20166;-60
2022/09/13 03:28:33;;;;;;;1999.90;999.90;;;;;;;10.98;100.00;93829.31;6271071;22;20357;-62
2022/09/13 03:31:04;;;;;;;1999.90;999.90;;;;;;;10.94;100.00;93827.91;6270923;22;20169;-60
2022/09/13 03:33:52;;;;;;;1999.90;999.90;;;;;;;10.94;100.00;93827.91;6270930;22;20190;-60
2022/09/13 03:36:29;;;;;;;1999.90;999.90;;;;;;;10.93;100.00;93821.69;6244232;23;20166;-59
2022/09/13 03:39:05;;;;;;;1999.90;999.90;;;;;;;10.89;100.00;93820.28;6270571;22;20166;-60
2022/09/13 03:41:35;;;;;;;1999.90;999.90;;;;;;;10.87;100.00;93807.09;6245068;23;20161;-60
2022/09/13 03:44:06;;;;;;;1999.90;999.90;;;;;;;10.88;100.00;93799.63;6244460;23;20202;-61
2022/09/13 03:46:40;;;;;;;1999.90;999.90;;;;;;;10.86;100.00;93800.09;6270423;22;20579;-59
2022/09/13 03:49:10;;;;;;;1999.90;999.90;;;;;;;10.86;100.00;93805.56;6270081;22;20546;-59
2022/09/13 03:51:37;;;;;;;1999.90;999.90;;;;;;;10.86;100.00;93812.97;6270171;22;20205;-59
2022/09/13 03:54:07;;;;;;;1999.90;999.90;;;;;;;10.86;100.00;93826.63;6244854;22;20158;-59
2022/09/13 03:56:33;;;;;;;1999.90;999.90;;;;;;;10.85;100.00;93831.31;6270314;22;20161;-59
2022/09/13 03:58:58;;;;;;;1999.90;999.90;;;;;;;10.86;100.00;93826.63;6244285;22;20193;-59
2022/09/13 04:01:24;;;;;;;1999.90;999.90;;;;;;;10.88;100.00;93826.94;6271362;22;20153;-56
2022/09/13 04:03:50;;;;;;;1999.90;999.90;;;;;;;10.88;100.00;93816.03;6246109;23;20273;-57
2022/09/13 04:06:16;;;;;;;1999.90;999.90;;;;;;;10.88;100.00;93803.13;6246628;22;20166;-58
2022/09/13 04:08:43;;;;;;;1999.90;999.90;;;;;;;10.85;100.00;93808.75;6245854;23;20165;-58
2022/09/13 04:11:09;;;;;;;1999.90;999.90;;;;;;;10.88;100.00;93810.56;6245986;23;20196;-59
2022/09/13 04:13:35;;;;;;;1999.90;999.90;;;;;;;10.86;100.00;93808.28;6271279;22;20172;-57
2022/09/13 04:16:05;;;;;;;1999.90;999.90;;;;;;;10.82;100.00;93804.16;6271403;22;20259;-57
2022/09/13 04:18:31;;;;;;;1999.90;999.90;;;;;;;10.80;100.00;93809.28;6246470;22;20301;-59
2022/09/13 04:20:59;;;;;;;1999.90;999.90;;;;;;;10.80;100.00;93806.56;6271640;22;20165;-56
2022/09/13 04:23:26;;;;;;;1999.90;999.90;;;;;;;10.78;100.00;93798.06;6245652;22;20195;-58
2022/09/13 04:25:52;;;;;;;1999.90;999.90;;;;;;;10.77;100.00;93807.44;6246021;23;20598;-54
2022/09/13 04:28:19;;;;;;;1999.90;999.90;;;;;;;10.79;100.00;93805.81;6245828;22;20177;-59
2022/09/13 04:30:48;;;;;;;1999.90;999.90;;;;;;;10.82;100.00;93804.16;6245935;22;20165;-59
2022/09/13 04:33:16;;;;;;;1999.90;999.90;;;;;;;10.82;100.00;93806.88;6246393;23;20169;-59
2022/09/13 04:35:41;;;;;;;1999.90;999.90;;;;;;;10.83;100.00;93811.91;6245888;22;20169;-59
2022/09/13 04:38:07;;;;;;;1999.90;999.90;;;;;;;10.84;100.00;93807.97;6270981;22;20168;-60
2022/09/13 04:40:33;;;;;;;1999.90;999.90;;;;;;;10.83;100.00;93811.13;6245248;23;20500;-59
2022/09/13 04:43:00;;;;;;;1999.90;999.90;;;;;;;10.82;100.00;93817.81;6245914;22;20185;-59
2022/09/13 04:45:25;;;;;;;1999.90;999.90;;;;;;;10.81;100.00;93830.69;6245711;23;20173;-59
2022/09/13 04:47:55;;;;;;;1999.90;999.90;;;;;;;10.83;100.00;93822.84;6271381;22;20185;-59
2022/09/13 04:50:22;;;;;;;1999.90;999.90;;;;;;;10.88;100.00;93835.13;6245405;23;20192;-59
2022/09/13 04:52:47;;;;;;;1999.90;999.90;;;;;;;10.94;100.00;93822.44;6246032;23;20173;-59
2022/09/13 04:55:13;;;;;;;1999.90;999.90;;;;;;;10.99;100.00;93825.38;6245488;23;20162;-60
2022/09/13 04:57:39;;;;;;;1999.90;999.90;;;;;;;11.02;100.00;93829.19;6245609;23;20471;-60
2022/09/13 05:00:05;;;;;;;1999.90;999.90;;;;;;;11.10;100.00;93838.66;6245653;23;20229;-60
2022/09/13 05:02:31;;;;;;;1999.90;999.90;;;;;;;11.23;100.00;93844.81;6246015;23;20213;-59
2022/09/13 05:04:56;;;;;;;1999.90;999.90;;;;;;;11.40;100.00;93843.44;6221375;22;20170;-59
2022/09/13 05:07:22;;;;;;;1999.90;999.90;;;;;;;11.60;100.00;93846.56;6271023;22;20212;-60
2022/09/13 05:09:47;;;;;;;1999.90;999.90;;;;;;;12.08;100.00;93837.72;6271794;22;20172;-60
2022/09/13 05:12:13;;;;;;;1999.90;999.90;;;;;;;12.74;100.00;93839.72;6270955;22;20159;-59
2022/09/13 05:14:38;;;;;;;1999.90;999.90;;;;;;;13.31;100.00;93855.31;6271085;22;20230;-60
2022/09/13 05:17:04;;;;;;;1999.90;999.90;;;;;;;13.79;100.00;93868.03;6271468;22;20161;-60
2022/09/13 05:19:29;;;;;;;1999.90;999.90;;;;;;;14.21;100.00;93898.28;6245909;22;20165;-60
2022/09/13 05:21:54;;;;;;;1999.90;999.90;;;;;;;14.78;100.00;93919.88;6271442;22;20180;-60
2022/09/13 05:24:20;;;;;;;1999.90;999.90;;;;;;;15.47;100.00;93936.91;6271005;22;20184;-60
2022/09/13 05:26:45;;;;;;;1999.90;999.90;;;;;;;15.91;100.00;93957.03;6271120;22;20588;-60
2022/09/13 05:29:10;;;;;;;1999.90;999.90;;;;;;;16.40;100.00;93972.94;6270858;22;20173;-60
2022/09/13 05:31:39;;;;;;;1999.90;999.90;;;;;;;16.51;100.00;94005.47;6270612;22;20174;-60
2022/09/13 05:34:09;;;;;;;1999.90;999.90;;;;;;;16.40;100.00;94023.28;6245619;23;20157;-61
2022/09/13 05:36:35;;;;;;;1999.90;999.90;;;;;;;16.72;100.00;94015.34;6246037;23;20575;-60
2022/09/13 05:39:00;;;;;;;1999.90;999.90;;;;;;;17.06;100.00;94017.41;6245764;22;20165;-59
2022/09/13 05:41:25;;;;;;;1999.90;999.90;;;;;;;17.37;100.00;94017.63;6270723;22;20181;-63
2022/09/13 05:43:51;;;;;;;1999.90;999.90;;;;;;;17.44;100.00;94017.28;6270754;22;20185;-62
2022/09/13 05:46:18;;;;;;;1999.90;999.90;;;;;;;17.63;100.00;94021.28;6270824;22;20169;-65
2022/09/13 05:48:44;;;;;;;1999.90;999.90;;;;;;;17.72;100.00;94030.19;6270899;22;20161;-65
2022/09/13 05:51:13;;;;;;;1999.90;999.90;;;;;;;17.72;100.00;94023.91;6244980;23;20185;-65
2022/09/13 05:53:40;;;;;;;1999.90;999.90;;;;;;;17.61;100.00;94046.63;6270864;22;20162;-65
2022/09/13 05:56:10;;;;;;;1999.90;999.90;;;;;;;17.65;100.00;94040.88;6270625;22;20171;-68
2022/09/13 05:58:43;;;;;;;1999.90;999.90;;;;;;;17.91;100.00;94030.69;6270914;22;20169;-66
2022/09/13 06:01:10;;;;;;;1999.90;999.90;;;;;;;18.66;100.00;94036.84;6245749;23;20203;-66
2022/09/13 06:03:36;;;;;;;1999.90;999.90;;;;;;;18.99;100.00;94049.00;6244915;22;20192;-66
2022/09/13 06:06:02;;;;;;;1999.90;999.90;;;;;;;19.29;100.00;94043.97;6245648;22;20227;-65
2022/09/13 06:08:29;;;;;;;1999.90;999.90;;;;;;;19.70;100.00;94036.94;6245859;23;20160;-65
2022/09/13 06:11:01;;;;;;;1999.90;999.90;;;;;;;20.55;100.00;94032.81;6270615;22;20161;-65
2022/09/13 06:13:28;;;;;;;1999.90;999.90;;;;;;;21.22;100.00;94245.50;6245668;23;20161;-64
2022/09/13 06:15:54;;;;;;;1999.90;999.90;;;;;;;21.77;100.00;93923.22;6244723;22;20165;-63
2022/09/13 06:18:20;;;;;;;1999.90;999.90;;;;;;;22.42;100.00;94070.88;6245374;22;20157;-63
2022/09/13 06:20:46;;;;;;;1999.90;999.90;;;;;;;23.03;100.00;94207.06;6244881;22;20247;-63
2022/09/13 06:23:13;;;;;;;1999.90;999.90;;;;;;;23.60;100.00;94625.31;6244791;23;20184;-63
2022/09/13 06:25:38;;;;;;;1999.90;999.90;;;;;;;24.23;100.00;94771.47;6244971;23;20177;-63
2022/09/13 06:28:04;;;;;;;1999.90;999.90;;;;;;;25.25;100.00;94896.13;6270772;22;20161;-63
2022/09/13 06:30:29;;;;;;;1999.90;999.90;;;;;;;26.00;100.00;94951.69;6245316;23;20161;-63
2022/09/13 06:32:55;;;;;;;1999.90;999.90;;;;;;;25.42;100.00;94956.38;6270378;22;20244;-63
2022/09/13 06:35:21;;;;;;;1999.90;999.90;;;;;;;25.88;100.00;94938.22;6244926;22;20242;-63
2022/09/13 06:37:46;;;;;;;1999.90;999.90;;;;;;;26.40;100.00;94948.19;6270559;22;20197;-63
2022/09/13 06:40:12;;;;;;;1999.90;999.90;;;;;;;26.54;95.82;94941.50;6245342;22;20196;-63
2022/09/13 06:42:37;;;;;;;1999.90;999.90;;;;;;;26.51;92.29;94931.31;6270717;22;20207;-64
2022/09/13 06:45:03;;;;;;;1999.90;999.90;;;;;;;26.78;89.93;94938.84;6270912;22;20221;-64
2022/09/13 06:47:29;;;;;;;1999.90;999.90;;;;;;;26.61;90.37;94940.97;6244959;22;20165;-63
2022/09/13 06:49:54;;;;;;;1999.90;999.90;;;;;;;27.19;87.00;94947.94;6245060;22;20216;-64
2022/09/13 06:52:20;;;;;;;1999.90;999.90;;;;;;;27.13;83.96;94958.44;6270506;22;20218;-64
2022/09/13 06:54:45;;;;;;;1999.90;999.90;;;;;;;28.01;81.05;94965.31;6270483;22;20192;-63
2022/09/13 06:57:11;;;;;;;1999.90;999.90;;;;;;;28.83;71.74;94979.63;6270659;22;20169;-63
2022/09/13 06:59:36;;;;;;;1999.90;999.90;;;;;;;29.37;67.75;94988.53;6270310;22;20157;-63
2022/09/13 07:02:02;;;;;;;1999.90;999.90;;;;;;;29.57;66.12;94996.41;6270355;22;20189;-63
2022/09/13 07:04:30;;;;;;;1999.90;999.90;;;;;;;29.67;66.27;94989.09;6244634;22;20255;-64
2022/09/13 07:06:56;;;;;;;1999.90;999.90;;;;;;;30.04;63.16;94991.78;6245349;23;20176;-64
2022/09/13 07:09:22;;;;;;;1999.90;999.90;;;;;;;30.46;59.58;94990.69;6245225;22;20189;-64
2022/09/13 07:11:50;;;;;;;1999.90;999.90;;;;;;;30.68;56.89;94990.22;6244886;22;20172;-63
2022/09/13 07:14:21;;;;;;;1999.90;999.90;;;;;;;30.56;58.18;94984.06;6244843;22;20161;-62
2022/09/13 07:16:47;;;;;;;1999.90;999.90;;;;;;;30.95;57.71;94983.25;6245419;23;20171;-63
2022/09/13 07:19:25;;;;;;;1999.90;999.90;;;;;;;31.62;54.34;94988.88;6245281;23;20185;-62
2022/09/13 07:21:51;;;;;;;1999.90;999.90;;;;;;;31.93;55.26;94999.13;6244954;23;20164;-64
2022/09/13 07:24:18;;;;;;;1999.90;999.90;;;;;;;32.62;50.56;95004.72;6244504;22;20241;-63
2022/09/13 07:26:45;;;;;;;1999.90;999.90;;;;;;;32.18;51.60;95005.91;6244651;23;20169;-63
2022/09/13 07:29:13;;;;;;;1999.90;999.90;;;;;;;32.62;48.78;95006.75;6244744;22;20165;-62
2022/09/13 07:31:41;;;;;;;1999.90;999.90;;;;;;;32.37;50.23;94997.22;6244520;23;20179;-62
2022/09/13 07:34:11;;;;;;;1999.90;999.90;;;;;;;32.74;50.19;94991.75;6245263;23;20165;-61
2022/09/13 07:36:36;;;;;;;1999.90;999.90;;;;;;;33.13;47.56;94999.84;6271121;22;20165;-62
2022/09/13 07:39:03;;;;;;;1999.90;999.90;;;;;;;33.80;44.59;95004.91;6271667;22;20204;-61
2022/09/13 07:41:29;;;;;;;1999.90;999.90;;;;;;;34.23;43.83;95000.41;6271835;22;20205;-62
2022/09/13 07:43:56;;;;;;;1999.90;999.90;;;;;;;33.55;43.75;94994.69;6271792;22;20169;-62
2022/09/13 07:46:24;;;;;;;1999.90;999.90;;;;;;;32.03;46.67;94986.03;6245720;23;20243;-63
2022/09/13 07:48:52;;;;;;;1999.90;999.90;;;;;;;32.33;47.73;94994.72;6271431;22;20165;-64
2022/09/13 07:51:21;;;;;;;1999.90;999.90;;;;;;;32.82;47.01;94998.25;6266133;22;20181;-64
2022/09/13 07:53:49;;;;;;;1999.90;999.90;;;;;;;33.73;42.66;95000.00;6245966;23;20241;-63
2022/09/13 07:56:17;;;;;;;1999.90;999.90;;;;;;;33.58;44.06;95005.66;6246444;22;20161;-62
2022/09/13 07:58:44;;;;;;;1999.90;999.90;;;;;;;33.32;45.33;95005.22;6246025;23;20161;-64
2022/09/13 08:01:20;;;;;;;1999.90;999.90;;;;;;;33.91;43.84;95008.72;6245830;23;20161;-63
2022/09/13 08:03:53;;;;;;;1999.90;999.90;;;;;;;34.48;40.19;95001.34;6246533;23;20227;-62
2022/09/13 08:06:19;;;;;;;1999.90;999.90;;;;;;;34.55;39.17;94997.75;6271447;22;20161;-62
2022/09/13 08:08:45;;;;;;;1999.90;999.90;;;;;;;35.40;37.21;94998.38;6245913;23;20223;-64
2022/09/13 08:11:17;;;;;;;1999.90;999.90;;;;;;;35.45;36.10;94997.38;6246537;23;20244;-63
2022/09/13 08:13:42;;;;;;;1999.90;999.90;;;;;;;36.21;35.01;94995.53;6246168;23;20189;-63
2022/09/13 08:16:08;;;;;;;1999.90;999.90;;;;;;;35.75;35.90;95002.88;6245818;23;20165;-63
2022/09/13 08:18:33;;;;;;;1999.90;999.90;;;;;;;36.06;35.51;94999.28;6271484;22;20169;-64
2022/09/13 08:20:59;;;;;;;1999.90;999.90;;;;;;;35.29;36.54;95001.63;6271982;22;20192;-63
2022/09/13 08:23:26;;;;;;;1999.90;999.90;;;;;;;34.84;35.63;95001.84;6245951;23;20173;-62
2022/09/13 08:25:51;;;;;;;1999.90;999.90;;;;;;;34.28;37.29;95002.28;6245910;22;20161;-63
2022/09/13 08:28:22;;;;;;;1999.90;999.90;;;;;;;32.61;41.04;94999.59;6245722;22;20165;-63
2022/09/13 08:30:48;;;;;;;1999.90;999.90;;;;;;;32.52;43.50;95003.69;6246285;23;20219;-64
2022/09/13 08:33:14;;;;;;;1999.90;999.90;;;;;;;32.47;43.92;95007.47;6271299;22;20184;-63
2022/09/13 08:35:40;;;;;;;1999.90;999.90;;;;;;;31.81;44.74;95000.72;6245787;22;20195;-64
2022/09/13 08:38:06;;;;;;;1999.90;999.90;;;;;;;31.36;47.86;94996.72;6245846;23;20188;-63
2022/09/13 08:40:38;;;;;;;1999.90;999.90;;;;;;;31.68;48.44;94995.13;6245773;22;20188;-63
2022/09/13 08:43:42;;;;;;;1999.90;999.90;;;;;;;31.86;48.52;94994.16;6246504;23;20158;-63
2022/09/13 08:46:20;;;;;;;1999.90;999.90;;;;;;;32.63;46.47;94992.06;6241837;23;20180;-64
2022/09/13 08:48:47;;;;;;;1999.90;999.90;;;;;;;33.10;43.98;94995.31;6246019;23;20156;-64
2022/09/13 08:51:39;;;;;;;1999.90;999.90;;;;;;;33.14;44.29;95001.38;6246130;23;20283;-62
2022/09/13 08:54:05;;;;;;;1999.90;999.90;;;;;;;34.51;40.70;94992.44;6245935;23;20177;-63
2022/09/13 08:56:45;;;;;;;1999.90;999.90;;;;;;;34.43;41.61;94994.53;6245590;22;20157;-63
2022/09/13 08:59:23;;;;;;;1999.90;999.90;;;;;;;35.13;38.25;94988.81;6271332;22;20199;-63
2022/09/13 09:02:22;;;;;;;1999.90;999.90;;;;;;;35.35;38.83;94983.06;6271066;22;20243;-63
2022/09/13 09:04:53;;;;;;;1999.90;999.90;;;;;;;35.11;38.68;94985.81;6271232;22;20169;-63
2022/09/13 09:07:22;;;;;;;1999.90;999.90;;;;;;;34.41;40.29;94987.94;6246077;23;20183;-61
2022/09/13 09:10:23;;;;;;;1999.90;999.90;;;;;;;35.14;39.48;94987.50;6271122;22;20169;-63
2022/09/13 09:13:12;;;;;;;1999.90;999.90;;;;;;;35.32;37.97;94977.78;6228321;22;20216;-62
2022/09/13 09:15:45;;;;;;;1999.90;999.90;;;;;;;34.45;39.64;94974.09;6271111;22;20240;-65
2022/09/13 09:18:13;;;;;;;1999.90;999.90;;;;;;;33.60;43.08;94980.34;6271409;22;20196;-59
2022/09/13 09:20:45;;;;;;;1999.90;999.90;;;;;;;33.15;44.04;94983.06;6271074;22;20276;-57
2022/09/13 09:23:23;;;;;;;1999.90;999.90;;;;;;;34.19;41.63;94983.00;6245975;23;20257;-57
2022/09/13 09:25:56;;;;;;;1999.90;999.90;;;;;;;34.20;41.53;94978.84;6246129;23;20161;-58
2022/09/13 09:28:22;;;;;;;1999.90;999.90;;;;;;;33.94;43.28;94977.19;6246175;23;20161;-58
2022/09/13 09:31:07;;;;;;;1999.90;999.90;;;;;;;35.39;39.22;94982.66;6271257;22;20172;-57
2022/09/13 09:33:38;;;;;;;1999.90;999.90;;;;;;;35.13;39.82;94977.47;6245435;23;20188;-57
2022/09/13 09:36:25;;;;;;;1999.90;999.90;;;;;;;35.67;37.74;94973.75;6271602;22;20230;-58
2022/09/13 09:38:50;;;;;;;1999.90;999.90;;;;;;;35.47;39.00;94966.31;6245678;23;20172;-58
2022/09/13 09:41:31;;;;;;;1999.90;999.90;;;;;;;34.50;40.45;94968.22;6245167;23;20184;-58
2022/09/13 09:44:19;;;;;;;1999.90;999.90;;;;;;;34.91;40.26;94972.63;6245438;23;20207;-58
2022/09/13 09:47:17;;;;;;;1999.90;999.90;;;;;;;35.21;39.22;94961.16;6245906;23;20257;-58
2022/09/13 09:50:10;;;;;;;1999.90;999.90;;;;;;;35.20;39.74;94965.31;6246795;22;20192;-57
2022/09/13 09:52:58;;;;;;;1999.90;999.90;;;;;;;34.77;39.58;94962.84;6245211;23;20216;-57
2022/09/13 09:55:36;;;;;;;1999.90;999.90;;;;;;;34.59;41.26;94964.03;6270953;22;20175;-57
2022/09/13 09:58:07;;;;;;;1999.90;999.90;;;;;;;35.42;39.03;94972.97;6245427;23;20203;-58
2022/09/13 10:00:51;;;;;;;1999.90;999.90;;;;;;;35.39;39.12;94966.34;6245374;23;20171;-57
2022/09/13 10:03:19;;;;;;;1999.90;999.90;;;;;;;35.80;37.97;94953.59;6245384;23;20234;-57
2022/09/13 10:05:46;;;;;;;1999.90;999.90;;;;;;;35.83;37.97;94941.06;6245522;23;20194;-58
2022/09/13 10:08:47;;;;;;;1999.90;999.90;;;;;;;35.51;37.46;94943.94;6245654;23;20216;-57
2022/09/13 10:11:14;;;;;;;1999.90;999.90;;;;;;;35.77;38.30;94937.69;6207432;22;20181;-57
2022/09/13 10:13:57;;;;;;;1999.90;999.90;;;;;;;35.53;37.25;94936.31;6245297;22;20177;-58
2022/09/13 10:16:28;;;;;;;1999.90;999.90;;;;;;;36.12;36.89;94933.59;6245686;23;20235;-58
2022/09/13 10:19:15;;;;;;;1999.90;999.90;;;;;;;35.55;37.79;94932.91;6245563;22;20161;-57
2022/09/13 10:21:41;;;;;;;1999.90;999.90;;;;;;;35.50;38.31;94934.63;6245062;23;20165;-58
2022/09/13 10:24:17;;;;;;;1999.90;999.90;;;;;;;35.91;36.09;94936.06;6271217;22;20219;-57
2022/09/13 10:26:43;;;;;;;1999.90;999.90;;;;;;;35.66;35.83;94929.59;6245676;23;20327;-58
2022/09/13 10:29:15;;;;;;;1999.90;999.90;;;;;;;35.93;36.22;94927.69;6270954;22;20157;-57
2022/09/13 10:31:44;;;;;;;1999.90;999.90;;;;;;;35.33;36.17;94928.13;6245198;23;20165;-57
2022/09/13 10:34:30;;;;;;;1999.90;999.90;;;;;;;35.73;36.62;94925.94;6271478;22;20165;-59
2022/09/13 10:36:55;;;;;;;1999.90;999.90;;;;;;;36.02;36.50;94918.50;6245230;23;20219;-58
2022/09/13 10:39:22;;;;;;;1999.90;999.90;;;;;;;36.28;34.90;94926.44;6270777;22;20161;-58
2022/09/13 10:42:10;;;;;;;1999.90;999.90;;;;;;;36.65;34.21;94928.09;6270511;22;20253;-58
2022/09/13 10:44:42;;;;;;;1999.90;999.90;;;;;;;35.95;36.02;94913.63;6244522;23;20240;-58
2022/09/13 10:47:26;;;;;;;1999.90;999.90;;;;;;;35.16;36.53;94928.00;6244961;23;20247;-57
2022/09/13 10:49:56;;;;;;;1999.90;999.90;;;;;;;35.70;37.26;94915.72;6270461;22;20181;-58
2022/09/13 10:52:34;;;;;;;1999.90;999.90;;;;;;;36.08;37.09;94910.47;6270561;22;20207;-58
2022/09/13 10:55:15;;;;;;;1999.90;999.90;;;;;;;36.06;34.84;94913.16;6245515;22;20161;-58
2022/09/13 10:57:40;;;;;;;1999.90;999.90;;;;;;;36.74;35.84;94916.03;6270588;22;20185;-57
2022/09/13 11:00:10;;;;;;;1999.90;999.90;;;;;;;36.50;34.94;94911.19;6270556;22;20173;-57
2022/09/13 11:03:10;;;;;;;1999.90;999.90;;;;;;;36.31;34.20;94911.03;6245665;22;20162;-57
2022/09/13 11:05:54;;;;;;;1999.90;999.90;;;;;;;36.19;35.45;94907.13;6245699;23;20165;-57
2022/09/13 11:08:31;;;;;;;1999.90;999.90;;;;;;;35.60;37.12;94906.31;6270435;22;20248;-55
2022/09/13 11:11:09;;;;;;;1999.90;999.90;;;;;;;35.46;37.12;94903.03;6271653;22;20165;-59